KJVW

John Bell Williams Airport

Raymond, Mississippi, USA
METAR KJVW 220955Z AUTO 00000KT 2SM BR CLR 20/20 A2999 RMK AO2
Observed Flight Rules
May-22 @ 09:55 UTC (22 minutes ago) Instrument Flight Rules
Visibility Clouds Conditions
2 miles
  • Clear skies
  • Mist
Temperatures Readings
Current 20°C / 68°F
Dewpoint 20°C / 68°F
Humidity 100%
Altimeter 29.99" Hg
Pressure 1016 hPa
Elevation 76
METAR KJVW 220955Z AUTO 00000KT 2SM BR CLR 20/20 A2999 RMK AO2
Observed Flight Rules
May-22 @ 09:55 UTC
(22 minutes ago)
IFR
Clouds
  • Clear skies
Conditions
  • Mist
Temperature Dewpoint
20°C / 68°F 20°C / 68°F
Humidity Altimeter Pressure
100% 29.99" Hg 1016 hPa